Thursday, August 16, 2018, 12:01 AM EDT
Back to Local

KMLT, Millinocket Municipal Airport

Location: Millinocket, ME, United States Lat: 45.65
Local Time: 12:01 AM EDT ( 4:01 GMT) Lon: -68.7
Time Zone: US/Eastern Elev: 406 ft

Show me the last for .
Show Decoded

2018-08-15 22:53 METAR KMLT 160253Z AUTO 00000KT 10SM SCT060 BKN070 BKN100 21/19 A2987 RMK AO2
                 SLP117 T02060189 51011 TSNO =
2018-08-15 21:53 METAR KMLT 160153Z AUTO 00000KT 10SM SCT110 20/18 A2986 RMK AO2 SLP114 T02000183
                 TSNO =
2018-08-15 20:53 METAR KMLT 160053Z AUTO 00000KT 10SM FEW050 BKN120 21/18 A2985 RMK AO2 SLP110
                 T02060183 TSNO =
2018-08-15 19:53 METAR KMLT 152353Z AUTO 00000KT 10SM BKN120 22/18 A2983 RMK AO2 SLP106 60001
                 T02170183 10278 20211 53015 TSNO =
2018-08-15 18:53 METAR KMLT 152253Z AUTO 31003KT 10SM CLR 22/18 A2982 RMK AO2 SLP101 T02170178
                 TSNO =
2018-08-15 17:53 METAR KMLT 152153Z AUTO 09004KT 10SM FEW027 BKN038 21/18 A2980 RMK AO2 SLP095
                 T02110178 TSNO =
2018-08-15 16:53 METAR KMLT 152053Z AUTO 35006KT 10SM SCT044 SCT080 BKN100 26/22 A2979 RMK AO2
                 RAB26E48 SLP091 P0001 60001 T02560217 53001 TSNO =
2018-08-15 15:53 METAR KMLT 151953Z AUTO VRB04KT 10SM CLR 28/20 A2979 RMK AO2 SLP088 T02780200
                 TSNO =
2018-08-15 14:53 METAR KMLT 151853Z AUTO VRB05KT 10SM CLR 27/21 A2979 RMK AO2 SLP089 T02670206
                 TSNO =
2018-08-15 13:53 METAR KMLT 151753Z AUTO 00000KT 10SM CLR 25/21 A2979 RMK AO2 RAE11 SLP090 P0000
                 60001 T02500211 10261 20222 58012 TSNO =
2018-08-15 12:53 METAR KMLT 151653Z AUTO 00000KT 10SM -RA FEW055 SCT085 BKN110 22/20 A2980 RMK
                 AO2 RAB04 SLP092 P0001 T02220200 TSNO =
2018-08-15 11:53 METAR KMLT 151553Z AUTO VRB04KT 10SM FEW024 SCT037 BKN044 25/19 A2982 RMK AO2
                 SLP100 T02500194 TSNO =
2018-08-15 11:41 METAR KMLT 151541Z AUTO VRB05KT 10SM SCT024 BKN036 OVC085 26/19 A2982 RMK AO2
                 T02560194 TSNO =
2018-08-15 10:53 METAR KMLT 151453Z AUTO VRB03KT 10SM BKN024 OVC029 25/19 A2982 RMK AO2 SLP100
                 T02500189 53001 TSNO =
2018-08-15 10:33 METAR KMLT 151433Z AUTO 17003KT 10SM BKN022 BKN027 BKN060 24/19 A2982 RMK AO2
                 T02440194 TSNO =
2018-08-15 10:03 METAR KMLT 151403Z AUTO VRB03KT 10SM SCT018 SCT060 26/19 A2982 RMK AO2 T02560194
                 TSNO =
2018-08-15 09:53 METAR KMLT 151353Z AUTO VRB04KT 10SM BKN018 24/19 A2981 RMK AO2 SLP099 T02440194
                 TSNO =
2018-08-15 08:53 METAR KMLT 151253Z AUTO VRB03KT 10SM OVC016 23/19 A2982 RMK AO2 SLP101 T02330189
                 TSNO =
2018-08-15 07:53 METAR KMLT 151153Z AUTO VRB04KT 10SM BKN012 22/19 A2982 RMK AO2 SLP100 T02220189
                 10228 20211 55000 TSNO =
2018-08-15 07:44 METAR KMLT 151144Z AUTO 19004KT 10SM BKN012 BKN044 22/19 A2982 RMK AO2 T02220189
                 TSNO =
2018-08-15 06:53 METAR KMLT 151053Z AUTO VRB04KT 10SM SCT016 BKN060 21/19 A2982 RMK AO2 SLP100
                 T02110194 TSNO =
2018-08-15 06:51 METAR KMLT 151051Z AUTO VRB04KT 10SM SCT017 BKN060 21/19 A2982 RMK AO2 TSNO =
2018-08-15 06:14 METAR KMLT 151014Z AUTO 15003KT 10SM OVC015 21/19 A2982 RMK AO2 T02110194 TSNO =
2018-08-15 05:53 METAR KMLT 150953Z AUTO 00000KT 10SM OVC013 21/19 A2982 RMK AO2 SLP101 T02110194
                 TSNO =
2018-08-15 04:53 METAR KMLT 150853Z AUTO 16003KT 10SM OVC010 21/19 A2981 RMK AO2 SLP096 T02110194
                 56008 TSNO =
2018-08-15 03:53 METAR KMLT 150753Z AUTO 00000KT 10SM OVC014 22/19 A2981 RMK AO2 SLP098 T02170194
                 TSNO =
2018-08-15 03:45 METAR KMLT 150745Z AUTO 00000KT 10SM OVC014 22/19 A2982 RMK AO2 T02170189 TSNO =
2018-08-15 02:53 METAR KMLT 150653Z AUTO VRB03KT 10SM FEW013 OVC020 22/19 A2983 RMK AO2 SLP102
                 T02170189 TSNO =
2018-08-15 02:41 METAR KMLT 150641Z AUTO VRB04KT 10SM SCT012 OVC023 22/19 A2983 RMK AO2 T02170189
                 TSNO =
2018-08-15 02:32 METAR KMLT 150632Z AUTO 00000KT 10SM BKN012 BKN023 22/19 A2983 RMK AO2 T02170194
                 TSNO =
2018-08-15 01:57 METAR KMLT 150557Z AUTO 17004KT 10SM SCT008 SCT014 OVC019 22/19 A2983 RMK AO2
                 T02170194 TSNO =
2018-08-15 01:53 METAR KMLT 150553Z AUTO VRB03KT 10SM BKN008 BKN014 OVC019 22/19 A2983 RMK AO2
                 SLP104 T02170194 10233 20217 58008 TSNO =
2018-08-15 01:22 METAR KMLT 150522Z AUTO VRB04KT 10SM OVC009 22/19 A2984 RMK AO2 CIG 007V013
                 T02170194 TSNO =
2018-08-15 00:53 METAR KMLT 150453Z AUTO 00000KT 10SM OVC012 22/19 A2984 RMK AO2 SLP109 T02170194
                 402610200 TSNO =

Support USWX by starting your Amazon purchase here.